sensor_id;sensor_type;location;lat;lon;timestamp;P1;durP1;ratioP1;P2;durP2;ratioP2
21128;SDS011;10722;51.910;8.352;2023-07-30T00:00:16;15.55;;;7.45;;
21128;SDS011;10722;51.910;8.352;2023-07-30T00:03:02;20.05;;;6.97;;
21128;SDS011;10722;51.910;8.352;2023-07-30T00:05:51;18.58;;;7.15;;
21128;SDS011;10722;51.910;8.352;2023-07-30T00:08:37;16.13;;;6.47;;
21128;SDS011;10722;51.910;8.352;2023-07-30T00:11:22;16.10;;;6.15;;
21128;SDS011;10722;51.910;8.352;2023-07-30T00:14:07;15.50;;;6.15;;
21128;SDS011;10722;51.910;8.352;2023-07-30T00:16:52;14.10;;;6.03;;
21128;SDS011;10722;51.910;8.352;2023-07-30T00:19:37;17.02;;;6.22;;
21128;SDS011;10722;51.910;8.352;2023-07-30T00:22:22;15.80;;;5.90;;
21128;SDS011;10722;51.910;8.352;2023-07-30T00:25:08;13.77;;;5.85;;
21128;SDS011;10722;51.910;8.352;2023-07-30T00:27:53;16.38;;;6.35;;
21128;SDS011;10722;51.910;8.352;2023-07-30T00:30:38;14.43;;;6.35;;
21128;SDS011;10722;51.910;8.352;2023-07-30T00:33:23;17.95;;;6.40;;
21128;SDS011;10722;51.910;8.352;2023-07-30T00:36:08;13.75;;;5.90;;
21128;SDS011;10722;51.910;8.352;2023-07-30T00:38:54;15.57;;;6.68;;
21128;SDS011;10722;51.910;8.352;2023-07-30T00:41:39;17.98;;;6.45;;
21128;SDS011;10722;51.910;8.352;2023-07-30T00:44:24;14.88;;;6.30;;
21128;SDS011;10722;51.910;8.352;2023-07-30T00:47:09;15.25;;;6.63;;
21128;SDS011;10722;51.910;8.352;2023-07-30T00:49:54;17.67;;;7.30;;
21128;SDS011;10722;51.910;8.352;2023-07-30T00:52:40;21.00;;;7.07;;
21128;SDS011;10722;51.910;8.352;2023-07-30T00:55:25;18.45;;;7.25;;
21128;SDS011;10722;51.910;8.352;2023-07-30T00:58:11;18.77;;;7.40;;
21128;SDS011;10722;51.910;8.352;2023-07-30T01:00:56;16.45;;;7.63;;
21128;SDS011;10722;51.910;8.352;2023-07-30T01:03:41;19.75;;;8.05;;
21128;SDS011;10722;51.910;8.352;2023-07-30T01:06:27;21.65;;;8.95;;
21128;SDS011;10722;51.910;8.352;2023-07-30T01:09:12;19.48;;;8.68;;
21128;SDS011;10722;51.910;8.352;2023-07-30T01:11:57;19.50;;;9.75;;
21128;SDS011;10722;51.910;8.352;2023-07-30T01:14:44;17.85;;;8.95;;
21128;SDS011;10722;51.910;8.352;2023-07-30T01:17:30;20.17;;;9.35;;
21128;SDS011;10722;51.910;8.352;2023-07-30T01:20:15;22.23;;;9.65;;
21128;SDS011;10722;51.910;8.352;2023-07-30T01:23:00;20.77;;;9.85;;
21128;SDS011;10722;51.910;8.352;2023-07-30T01:25:46;21.77;;;11.60;;
21128;SDS011;10722;51.910;8.352;2023-07-30T01:28:43;18.67;;;10.10;;
21128;SDS011;10722;51.910;8.352;2023-07-30T01:31:32;21.83;;;10.90;;
21128;SDS011;10722;51.910;8.352;2023-07-30T01:34:20;18.65;;;9.60;;
21128;SDS011;10722;51.910;8.352;2023-07-30T01:37:07;22.00;;;8.63;;
21128;SDS011;10722;51.910;8.352;2023-07-30T01:39:55;18.35;;;9.38;;
21128;SDS011;10722;51.910;8.352;2023-07-30T01:42:41;18.95;;;9.23;;
21128;SDS011;10722;51.910;8.352;2023-07-30T01:45:26;24.83;;;11.40;;
21128;SDS011;10722;51.910;8.352;2023-07-30T01:48:11;19.60;;;10.23;;
21128;SDS011;10722;51.910;8.352;2023-07-30T01:50:56;21.25;;;10.35;;
21128;SDS011;10722;51.910;8.352;2023-07-30T01:53:41;18.42;;;9.73;;
21128;SDS011;10722;51.910;8.352;2023-07-30T01:56:26;21.27;;;10.57;;
21128;SDS011;10722;51.910;8.352;2023-07-30T01:59:11;22.40;;;10.52;;
21128;SDS011;10722;51.910;8.352;2023-07-30T02:01:57;21.73;;;11.05;;
21128;SDS011;10722;51.910;8.352;2023-07-30T02:04:47;23.80;;;11.23;;
21128;SDS011;10722;51.910;8.352;2023-07-30T02:07:33;22.05;;;11.75;;
21128;SDS011;10722;51.910;8.352;2023-07-30T02:10:18;31.35;;;12.70;;
21128;SDS011;10722;51.910;8.352;2023-07-30T02:13:03;24.15;;;12.75;;
21128;SDS011;10722;51.910;8.352;2023-07-30T02:15:48;25.30;;;12.60;;
21128;SDS011;10722;51.910;8.352;2023-07-30T02:18:32;25.83;;;12.80;;
21128;SDS011;10722;51.910;8.352;2023-07-30T02:21:17;21.80;;;12.32;;
21128;SDS011;10722;51.910;8.352;2023-07-30T02:24:02;24.27;;;12.30;;
21128;SDS011;10722;51.910;8.352;2023-07-30T02:26:48;24.42;;;11.50;;
21128;SDS011;10722;51.910;8.352;2023-07-30T02:29:33;21.65;;;12.02;;
21128;SDS011;10722;51.910;8.352;2023-07-30T02:32:18;22.60;;;11.25;;
21128;SDS011;10722;51.910;8.352;2023-07-30T02:35:03;24.27;;;10.50;;
21128;SDS011;10722;51.910;8.352;2023-07-30T02:37:48;22.33;;;10.30;;
21128;SDS011;10722;51.910;8.352;2023-07-30T02:40:33;23.98;;;9.35;;
21128;SDS011;10722;51.910;8.352;2023-07-30T02:43:18;20.58;;;8.50;;
21128;SDS011;10722;51.910;8.352;2023-07-30T02:46:03;21.38;;;7.95;;
21128;SDS011;10722;51.910;8.352;2023-07-30T02:48:48;19.15;;;7.93;;
21128;SDS011;10722;51.910;8.352;2023-07-30T02:51:33;17.67;;;7.75;;
21128;SDS011;10722;51.910;8.352;2023-07-30T02:54:18;19.27;;;7.30;;
21128;SDS011;10722;51.910;8.352;2023-07-30T02:57:04;21.15;;;7.20;;
21128;SDS011;10722;51.910;8.352;2023-07-30T02:59:49;17.55;;;6.88;;
21128;SDS011;10722;51.910;8.352;2023-07-30T03:02:35;20.15;;;6.60;;
21128;SDS011;10722;51.910;8.352;2023-07-30T03:05:20;22.70;;;6.55;;
21128;SDS011;10722;51.910;8.352;2023-07-30T03:08:05;19.52;;;6.70;;
21128;SDS011;10722;51.910;8.352;2023-07-30T03:10:50;19.60;;;6.57;;
21128;SDS011;10722;51.910;8.352;2023-07-30T03:13:35;19.98;;;6.93;;
21128;SDS011;10722;51.910;8.352;2023-07-30T03:16:20;21.10;;;6.65;;
21128;SDS011;10722;51.910;8.352;2023-07-30T03:19:05;19.73;;;6.20;;
21128;SDS011;10722;51.910;8.352;2023-07-30T03:21:50;23.05;;;6.60;;
21128;SDS011;10722;51.910;8.352;2023-07-30T03:24:35;17.90;;;6.45;;
21128;SDS011;10722;51.910;8.352;2023-07-30T03:27:20;18.17;;;6.60;;
21128;SDS011;10722;51.910;8.352;2023-07-30T03:30:05;17.10;;;6.13;;
21128;SDS011;10722;51.910;8.352;2023-07-30T03:32:50;18.60;;;6.18;;
21128;SDS011;10722;51.910;8.352;2023-07-30T03:35:35;18.40;;;5.82;;
21128;SDS011;10722;51.910;8.352;2023-07-30T03:38:20;15.60;;;6.22;;
21128;SDS011;10722;51.910;8.352;2023-07-30T03:41:05;21.48;;;6.30;;
21128;SDS011;10722;51.910;8.352;2023-07-30T03:43:51;15.48;;;5.60;;
21128;SDS011;10722;51.910;8.352;2023-07-30T03:46:36;19.63;;;6.20;;
21128;SDS011;10722;51.910;8.352;2023-07-30T03:49:21;15.60;;;5.60;;
21128;SDS011;10722;51.910;8.352;2023-07-30T03:52:06;19.00;;;6.28;;
21128;SDS011;10722;51.910;8.352;2023-07-30T03:54:51;16.08;;;5.47;;
21128;SDS011;10722;51.910;8.352;2023-07-30T03:57:36;19.50;;;5.72;;
21128;SDS011;10722;51.910;8.352;2023-07-30T04:00:21;18.52;;;6.05;;
21128;SDS011;10722;51.910;8.352;2023-07-30T04:03:07;17.20;;;6.00;;
21128;SDS011;10722;51.910;8.352;2023-07-30T04:05:52;18.83;;;5.68;;
21128;SDS011;10722;51.910;8.352;2023-07-30T04:08:37;17.42;;;5.50;;
21128;SDS011;10722;51.910;8.352;2023-07-30T04:11:22;15.68;;;5.57;;
21128;SDS011;10722;51.910;8.352;2023-07-30T04:14:07;16.50;;;5.75;;
21128;SDS011;10722;51.910;8.352;2023-07-30T04:16:52;17.15;;;5.68;;
21128;SDS011;10722;51.910;8.352;2023-07-30T04:19:37;16.92;;;5.57;;
21128;SDS011;10722;51.910;8.352;2023-07-30T04:22:22;15.90;;;5.10;;
21128;SDS011;10722;51.910;8.352;2023-07-30T04:25:07;18.88;;;5.50;;
21128;SDS011;10722;51.910;8.352;2023-07-30T04:27:53;22.02;;;5.50;;
21128;SDS011;10722;51.910;8.352;2023-07-30T04:30:38;16.40;;;5.88;;
21128;SDS011;10722;51.910;8.352;2023-07-30T04:33:23;18.27;;;5.93;;
21128;SDS011;10722;51.910;8.352;2023-07-30T04:36:08;19.67;;;5.22;;
21128;SDS011;10722;51.910;8.352;2023-07-30T04:38:54;17.83;;;5.45;;
21128;SDS011;10722;51.910;8.352;2023-07-30T04:41:39;16.17;;;5.10;;
21128;SDS011;10722;51.910;8.352;2023-07-30T04:44:25;15.60;;;5.18;;
21128;SDS011;10722;51.910;8.352;2023-07-30T04:47:10;19.65;;;5.88;;
21128;SDS011;10722;51.910;8.352;2023-07-30T04:49:55;16.30;;;4.60;;
21128;SDS011;10722;51.910;8.352;2023-07-30T04:52:40;19.20;;;5.50;;
21128;SDS011;10722;51.910;8.352;2023-07-30T04:55:25;15.65;;;4.90;;
21128;SDS011;10722;51.910;8.352;2023-07-30T04:58:10;18.23;;;5.28;;
21128;SDS011;10722;51.910;8.352;2023-07-30T05:00:55;14.93;;;5.07;;
21128;SDS011;10722;51.910;8.352;2023-07-30T05:03:40;17.48;;;4.82;;
21128;SDS011;10722;51.910;8.352;2023-07-30T05:06:25;15.20;;;4.80;;
21128;SDS011;10722;51.910;8.352;2023-07-30T05:09:10;18.73;;;5.40;;
21128;SDS011;10722;51.910;8.352;2023-07-30T05:11:55;19.42;;;5.45;;
21128;SDS011;10722;51.910;8.352;2023-07-30T05:14:40;18.63;;;5.07;;
21128;SDS011;10722;51.910;8.352;2023-07-30T05:17:25;14.07;;;4.65;;
21128;SDS011;10722;51.910;8.352;2023-07-30T05:20:10;15.80;;;5.10;;
21128;SDS011;10722;51.910;8.352;2023-07-30T05:22:55;18.83;;;4.90;;
21128;SDS011;10722;51.910;8.352;2023-07-30T05:25:40;15.73;;;4.60;;
21128;SDS011;10722;51.910;8.352;2023-07-30T05:28:25;15.13;;;4.68;;
21128;SDS011;10722;51.910;8.352;2023-07-30T05:31:10;17.95;;;5.07;;
21128;SDS011;10722;51.910;8.352;2023-07-30T05:33:55;15.80;;;4.78;;
21128;SDS011;10722;51.910;8.352;2023-07-30T05:36:40;17.98;;;4.93;;
21128;SDS011;10722;51.910;8.352;2023-07-30T05:39:25;14.90;;;4.43;;
21128;SDS011;10722;51.910;8.352;2023-07-30T05:42:10;18.25;;;4.75;;
21128;SDS011;10722;51.910;8.352;2023-07-30T05:44:55;16.45;;;4.93;;
21128;SDS011;10722;51.910;8.352;2023-07-30T05:47:40;17.42;;;4.95;;
21128;SDS011;10722;51.910;8.352;2023-07-30T05:50:26;18.85;;;4.78;;
21128;SDS011;10722;51.910;8.352;2023-07-30T05:53:11;18.55;;;4.38;;
21128;SDS011;10722;51.910;8.352;2023-07-30T05:55:56;17.08;;;4.65;;
21128;SDS011;10722;51.910;8.352;2023-07-30T05:58:41;19.88;;;4.68;;
21128;SDS011;10722;51.910;8.352;2023-07-30T06:01:26;18.05;;;4.88;;
21128;SDS011;10722;51.910;8.352;2023-07-30T06:04:12;17.17;;;4.80;;
21128;SDS011;10722;51.910;8.352;2023-07-30T06:06:58;18.58;;;4.80;;
21128;SDS011;10722;51.910;8.352;2023-07-30T06:09:44;17.70;;;4.97;;
21128;SDS011;10722;51.910;8.352;2023-07-30T06:12:29;20.73;;;4.38;;
21128;SDS011;10722;51.910;8.352;2023-07-30T06:15:14;16.45;;;4.60;;
21128;SDS011;10722;51.910;8.352;2023-07-30T06:18:00;18.30;;;4.88;;
21128;SDS011;10722;51.910;8.352;2023-07-30T06:20:46;24.38;;;5.30;;
21128;SDS011;10722;51.910;8.352;2023-07-30T06:23:31;18.17;;;4.38;;
21128;SDS011;10722;51.910;8.352;2023-07-30T06:26:16;20.33;;;5.20;;
21128;SDS011;10722;51.910;8.352;2023-07-30T06:29:01;16.10;;;4.50;;
21128;SDS011;10722;51.910;8.352;2023-07-30T06:31:46;20.88;;;5.78;;
21128;SDS011;10722;51.910;8.352;2023-07-30T06:34:32;20.48;;;6.55;;
21128;SDS011;10722;51.910;8.352;2023-07-30T06:37:17;21.35;;;6.43;;
21128;SDS011;10722;51.910;8.352;2023-07-30T06:40:02;22.90;;;7.25;;
21128;SDS011;10722;51.910;8.352;2023-07-30T06:42:47;22.23;;;6.95;;
21128;SDS011;10722;51.910;8.352;2023-07-30T06:45:32;22.77;;;7.93;;
21128;SDS011;10722;51.910;8.352;2023-07-30T06:48:17;25.35;;;9.10;;
21128;SDS011;10722;51.910;8.352;2023-07-30T06:51:05;23.50;;;9.93;;
21128;SDS011;10722;51.910;8.352;2023-07-30T06:53:51;25.27;;;11.50;;
21128;SDS011;10722;51.910;8.352;2023-07-30T06:56:36;28.45;;;13.80;;
21128;SDS011;10722;51.910;8.352;2023-07-30T06:59:21;33.92;;;16.73;;
21128;SDS011;10722;51.910;8.352;2023-07-30T07:02:06;32.55;;;17.00;;
21128;SDS011;10722;51.910;8.352;2023-07-30T07:04:51;31.48;;;17.08;;
21128;SDS011;10722;51.910;8.352;2023-07-30T07:07:36;32.47;;;19.33;;
21128;SDS011;10722;51.910;8.352;2023-07-30T07:10:21;32.85;;;20.20;;
21128;SDS011;10722;51.910;8.352;2023-07-30T07:13:07;35.53;;;19.40;;
21128;SDS011;10722;51.910;8.352;2023-07-30T07:15:51;33.72;;;17.27;;
21128;SDS011;10722;51.910;8.352;2023-07-30T07:18:36;30.08;;;17.83;;
21128;SDS011;10722;51.910;8.352;2023-07-30T07:21:21;34.70;;;16.38;;
21128;SDS011;10722;51.910;8.352;2023-07-30T07:24:06;30.20;;;17.27;;
21128;SDS011;10722;51.910;8.352;2023-07-30T07:26:51;30.52;;;17.63;;
21128;SDS011;10722;51.910;8.352;2023-07-30T07:29:37;33.42;;;17.45;;
21128;SDS011;10722;51.910;8.352;2023-07-30T07:32:22;32.15;;;17.00;;
21128;SDS011;10722;51.910;8.352;2023-07-30T07:35:07;34.95;;;17.45;;
21128;SDS011;10722;51.910;8.352;2023-07-30T07:37:53;29.77;;;17.17;;
21128;SDS011;10722;51.910;8.352;2023-07-30T07:40:38;32.78;;;17.52;;
21128;SDS011;10722;51.910;8.352;2023-07-30T07:43:24;33.78;;;19.55;;
21128;SDS011;10722;51.910;8.352;2023-07-30T07:46:08;34.55;;;21.80;;
21128;SDS011;10722;51.910;8.352;2023-07-30T07:48:53;35.63;;;22.35;;
21128;SDS011;10722;51.910;8.352;2023-07-30T07:51:38;38.83;;;22.83;;
21128;SDS011;10722;51.910;8.352;2023-07-30T07:54:24;43.22;;;24.77;;
21128;SDS011;10722;51.910;8.352;2023-07-30T07:57:08;39.47;;;23.55;;
21128;SDS011;10722;51.910;8.352;2023-07-30T07:59:53;40.25;;;25.08;;
21128;SDS011;10722;51.910;8.352;2023-07-30T08:02:38;40.20;;;24.88;;
21128;SDS011;10722;51.910;8.352;2023-07-30T08:05:24;46.70;;;32.97;;
21128;SDS011;10722;51.910;8.352;2023-07-30T08:08:09;38.70;;;24.27;;
21128;SDS011;10722;51.910;8.352;2023-07-30T08:10:54;40.55;;;23.92;;
21128;SDS011;10722;51.910;8.352;2023-07-30T08:13:40;38.22;;;24.65;;
21128;SDS011;10722;51.910;8.352;2023-07-30T08:16:25;41.22;;;25.73;;
21128;SDS011;10722;51.910;8.352;2023-07-30T08:19:10;48.38;;;25.15;;
21128;SDS011;10722;51.910;8.352;2023-07-30T08:21:55;42.55;;;25.63;;
21128;SDS011;10722;51.910;8.352;2023-07-30T08:24:40;47.17;;;26.08;;
21128;SDS011;10722;51.910;8.352;2023-07-30T08:27:25;45.75;;;26.70;;
21128;SDS011;10722;51.910;8.352;2023-07-30T08:30:10;45.60;;;26.05;;
21128;SDS011;10722;51.910;8.352;2023-07-30T08:32:56;48.65;;;27.77;;
21128;SDS011;10722;51.910;8.352;2023-07-30T08:35:42;43.03;;;26.50;;
21128;SDS011;10722;51.910;8.352;2023-07-30T08:38:28;44.17;;;27.35;;
21128;SDS011;10722;51.910;8.352;2023-07-30T08:41:14;48.65;;;27.85;;
21128;SDS011;10722;51.910;8.352;2023-07-30T08:43:59;45.50;;;24.83;;
21128;SDS011;10722;51.910;8.352;2023-07-30T08:46:45;46.67;;;26.20;;
21128;SDS011;10722;51.910;8.352;2023-07-30T08:49:30;39.60;;;24.75;;
21128;SDS011;10722;51.910;8.352;2023-07-30T08:52:16;41.72;;;26.05;;
21128;SDS011;10722;51.910;8.352;2023-07-30T08:55:02;39.65;;;25.50;;
21128;SDS011;10722;51.910;8.352;2023-07-30T08:57:48;41.47;;;25.20;;
21128;SDS011;10722;51.910;8.352;2023-07-30T09:00:36;39.60;;;24.70;;
21128;SDS011;10722;51.910;8.352;2023-07-30T09:03:24;43.88;;;26.95;;
21128;SDS011;10722;51.910;8.352;2023-07-30T09:06:12;44.70;;;26.52;;
21128;SDS011;10722;51.910;8.352;2023-07-30T09:08:57;40.45;;;26.83;;
21128;SDS011;10722;51.910;8.352;2023-07-30T09:11:42;46.88;;;27.33;;
21128;SDS011;10722;51.910;8.352;2023-07-30T09:14:26;43.33;;;26.27;;
21128;SDS011;10722;51.910;8.352;2023-07-30T09:17:18;43.85;;;27.15;;
21128;SDS011;10722;51.910;8.352;2023-07-30T09:20:04;42.25;;;26.83;;
21128;SDS011;10722;51.910;8.352;2023-07-30T09:22:49;39.22;;;26.25;;
21128;SDS011;10722;51.910;8.352;2023-07-30T09:25:35;40.38;;;25.42;;
21128;SDS011;10722;51.910;8.352;2023-07-30T09:28:21;41.00;;;25.95;;
21128;SDS011;10722;51.910;8.352;2023-07-30T09:31:07;39.35;;;23.80;;
21128;SDS011;10722;51.910;8.352;2023-07-30T09:34:06;42.40;;;24.90;;
21128;SDS011;10722;51.910;8.352;2023-07-30T09:36:54;37.30;;;24.00;;
21128;SDS011;10722;51.910;8.352;2023-07-30T09:39:39;41.28;;;21.17;;
21128;SDS011;10722;51.910;8.352;2023-07-30T09:42:28;35.10;;;20.48;;
21128;SDS011;10722;51.910;8.352;2023-07-30T09:45:20;34.17;;;18.70;;
21128;SDS011;10722;51.910;8.352;2023-07-30T09:48:07;35.42;;;19.60;;
21128;SDS011;10722;51.910;8.352;2023-07-30T09:50:52;33.13;;;17.92;;
21128;SDS011;10722;51.910;8.352;2023-07-30T09:53:38;31.60;;;16.58;;
21128;SDS011;10722;51.910;8.352;2023-07-30T09:56:24;30.80;;;15.95;;
21128;SDS011;10722;51.910;8.352;2023-07-30T09:59:09;29.63;;;16.15;;
21128;SDS011;10722;51.910;8.352;2023-07-30T10:01:54;29.38;;;15.52;;
21128;SDS011;10722;51.910;8.352;2023-07-30T10:04:42;30.88;;;16.08;;
21128;SDS011;10722;51.910;8.352;2023-07-30T10:07:28;28.77;;;15.07;;
21128;SDS011;10722;51.910;8.352;2023-07-30T10:10:15;29.23;;;15.48;;
21128;SDS011;10722;51.910;8.352;2023-07-30T10:13:00;30.38;;;15.88;;
21128;SDS011;10722;51.910;8.352;2023-07-30T10:15:48;27.85;;;15.00;;
21128;SDS011;10722;51.910;8.352;2023-07-30T10:18:43;28.17;;;15.18;;
21128;SDS011;10722;51.910;8.352;2023-07-30T10:21:28;29.85;;;15.25;;
21128;SDS011;10722;51.910;8.352;2023-07-30T10:24:13;26.35;;;14.13;;
21128;SDS011;10722;51.910;8.352;2023-07-30T10:27:01;25.75;;;14.50;;
21128;SDS011;10722;51.910;8.352;2023-07-30T10:29:51;29.80;;;13.80;;
21128;SDS011;10722;51.910;8.352;2023-07-30T10:33:04;25.88;;;14.30;;
21128;SDS011;10722;51.910;8.352;2023-07-30T10:35:54;27.00;;;14.02;;
21128;SDS011;10722;51.910;8.352;2023-07-30T10:38:39;28.10;;;13.38;;
21128;SDS011;10722;51.910;8.352;2023-07-30T10:41:24;31.27;;;13.48;;
21128;SDS011;10722;51.910;8.352;2023-07-30T10:44:16;26.83;;;12.05;;
21128;SDS011;10722;51.910;8.352;2023-07-30T10:47:02;22.63;;;11.25;;
21128;SDS011;10722;51.910;8.352;2023-07-30T10:49:48;24.27;;;10.98;;
21128;SDS011;10722;51.910;8.352;2023-07-30T10:52:35;25.65;;;11.63;;
21128;SDS011;10722;51.910;8.352;2023-07-30T10:55:21;22.55;;;10.73;;
21128;SDS011;10722;51.910;8.352;2023-07-30T10:58:14;24.60;;;9.98;;
21128;SDS011;10722;51.910;8.352;2023-07-30T11:01:03;20.58;;;8.50;;
21128;SDS011;10722;51.910;8.352;2023-07-30T11:03:50;25.05;;;9.20;;
21128;SDS011;10722;51.910;8.352;2023-07-30T11:06:35;17.80;;;8.05;;
21128;SDS011;10722;51.910;8.352;2023-07-30T11:09:21;20.35;;;8.57;;
21128;SDS011;10722;51.910;8.352;2023-07-30T11:12:08;19.80;;;7.50;;
21128;SDS011;10722;51.910;8.352;2023-07-30T11:15:00;18.50;;;7.38;;
21128;SDS011;10722;51.910;8.352;2023-07-30T11:17:49;18.23;;;7.85;;
21128;SDS011;10722;51.910;8.352;2023-07-30T11:20:36;19.73;;;7.38;;
21128;SDS011;10722;51.910;8.352;2023-07-30T11:23:22;18.85;;;7.30;;
21128;SDS011;10722;51.910;8.352;2023-07-30T11:26:08;20.15;;;7.18;;
21128;SDS011;10722;51.910;8.352;2023-07-30T11:28:54;15.45;;;6.35;;
21128;SDS011;10722;51.910;8.352;2023-07-30T11:31:39;16.42;;;6.40;;
21128;SDS011;10722;51.910;8.352;2023-07-30T11:34:25;15.32;;;5.85;;
21128;SDS011;10722;51.910;8.352;2023-07-30T11:37:11;18.90;;;6.00;;
21128;SDS011;10722;51.910;8.352;2023-07-30T11:39:57;16.25;;;5.53;;
21128;SDS011;10722;51.910;8.352;2023-07-30T11:42:42;16.25;;;5.40;;
21128;SDS011;10722;51.910;8.352;2023-07-30T11:45:27;17.83;;;5.20;;
21128;SDS011;10722;51.910;8.352;2023-07-30T11:48:13;16.50;;;5.00;;
21128;SDS011;10722;51.910;8.352;2023-07-30T11:50:58;14.68;;;4.32;;
21128;SDS011;10722;51.910;8.352;2023-07-30T11:53:51;14.43;;;4.45;;
21128;SDS011;10722;51.910;8.352;2023-07-30T11:56:37;14.45;;;4.70;;
21128;SDS011;10722;51.910;8.352;2023-07-30T11:59:22;16.42;;;4.40;;
21128;SDS011;10722;51.910;8.352;2023-07-30T12:02:07;17.05;;;4.50;;
21128;SDS011;10722;51.910;8.352;2023-07-30T12:04:53;16.25;;;4.38;;
21128;SDS011;10722;51.910;8.352;2023-07-30T12:07:54;12.75;;;3.80;;
21128;SDS011;10722;51.910;8.352;2023-07-30T12:10:40;14.07;;;3.90;;
21128;SDS011;10722;51.910;8.352;2023-07-30T12:13:26;16.20;;;5.03;;
21128;SDS011;10722;51.910;8.352;2023-07-30T12:16:12;14.15;;;4.57;;
21128;SDS011;10722;51.910;8.352;2023-07-30T12:18:58;15.23;;;4.07;;
21128;SDS011;10722;51.910;8.352;2023-07-30T12:21:43;26.58;;;14.95;;
21128;SDS011;10722;51.910;8.352;2023-07-30T12:24:28;16.35;;;4.10;;
21128;SDS011;10722;51.910;8.352;2023-07-30T12:27:13;11.68;;;3.45;;
21128;SDS011;10722;51.910;8.352;2023-07-30T12:29:58;15.57;;;3.92;;
21128;SDS011;10722;51.910;8.352;2023-07-30T12:32:43;13.00;;;3.80;;
21128;SDS011;10722;51.910;8.352;2023-07-30T12:35:27;15.85;;;3.85;;
21128;SDS011;10722;51.910;8.352;2023-07-30T12:38:12;14.77;;;4.55;;
21128;SDS011;10722;51.910;8.352;2023-07-30T12:40:57;12.45;;;3.88;;
21128;SDS011;10722;51.910;8.352;2023-07-30T12:43:42;15.88;;;4.00;;
21128;SDS011;10722;51.910;8.352;2023-07-30T12:46:27;16.30;;;4.13;;
21128;SDS011;10722;51.910;8.352;2023-07-30T12:49:12;16.60;;;3.70;;
21128;SDS011;10722;51.910;8.352;2023-07-30T12:51:57;14.88;;;3.40;;
21128;SDS011;10722;51.910;8.352;2023-07-30T12:54:42;14.63;;;3.50;;
21128;SDS011;10722;51.910;8.352;2023-07-30T12:57:27;15.43;;;3.50;;
21128;SDS011;10722;51.910;8.352;2023-07-30T13:00:14;15.48;;;3.40;;
21128;SDS011;10722;51.910;8.352;2023-07-30T13:02:59;14.32;;;3.33;;
21128;SDS011;10722;51.910;8.352;2023-07-30T13:05:44;14.68;;;3.03;;
21128;SDS011;10722;51.910;8.352;2023-07-30T13:08:29;16.50;;;3.45;;
21128;SDS011;10722;51.910;8.352;2023-07-30T13:11:15;18.73;;;3.63;;
21128;SDS011;10722;51.910;8.352;2023-07-30T13:14:00;15.32;;;3.58;;
21128;SDS011;10722;51.910;8.352;2023-07-30T13:16:48;16.73;;;3.58;;
21128;SDS011;10722;51.910;8.352;2023-07-30T13:19:33;15.40;;;3.58;;
21128;SDS011;10722;51.910;8.352;2023-07-30T13:22:18;16.98;;;4.35;;
21128;SDS011;10722;51.910;8.352;2023-07-30T13:25:03;18.63;;;4.72;;
21128;SDS011;10722;51.910;8.352;2023-07-30T13:27:48;15.63;;;3.97;;
21128;SDS011;10722;51.910;8.352;2023-07-30T13:30:33;17.63;;;4.20;;
21128;SDS011;10722;51.910;8.352;2023-07-30T13:33:19;13.60;;;3.53;;
21128;SDS011;10722;51.910;8.352;2023-07-30T13:36:04;14.48;;;3.58;;
21128;SDS011;10722;51.910;8.352;2023-07-30T13:38:50;13.40;;;3.03;;
21128;SDS011;10722;51.910;8.352;2023-07-30T13:41:35;10.90;;;2.75;;
21128;SDS011;10722;51.910;8.352;2023-07-30T13:44:25;12.43;;;2.83;;
21128;SDS011;10722;51.910;8.352;2023-07-30T13:47:10;11.98;;;2.45;;
21128;SDS011;10722;51.910;8.352;2023-07-30T13:49:59;74.30;;;46.25;;
21128;SDS011;10722;51.910;8.352;2023-07-30T13:52:44;8.93;;;2.08;;
21128;SDS011;10722;51.910;8.352;2023-07-30T13:55:30;10.70;;;2.75;;
21128;SDS011;10722;51.910;8.352;2023-07-30T13:58:17;8.23;;;2.20;;
21128;SDS011;10722;51.910;8.352;2023-07-30T14:01:05;7.45;;;2.10;;
21128;SDS011;10722;51.910;8.352;2023-07-30T14:03:52;6.40;;;2.00;;
21128;SDS011;10722;51.910;8.352;2023-07-30T14:06:38;13.02;;;2.70;;
21128;SDS011;10722;51.910;8.352;2023-07-30T14:09:23;10.48;;;2.45;;
21128;SDS011;10722;51.910;8.352;2023-07-30T14:12:09;10.20;;;2.42;;
21128;SDS011;10722;51.910;8.352;2023-07-30T14:14:56;7.72;;;2.40;;
21128;SDS011;10722;51.910;8.352;2023-07-30T14:17:42;10.73;;;2.30;;
21128;SDS011;10722;51.910;8.352;2023-07-30T14:20:28;10.65;;;2.50;;
21128;SDS011;10722;51.910;8.352;2023-07-30T14:23:13;11.02;;;2.47;;
21128;SDS011;10722;51.910;8.352;2023-07-30T14:25:59;10.30;;;2.50;;
21128;SDS011;10722;51.910;8.352;2023-07-30T14:28:45;11.45;;;2.53;;
21128;SDS011;10722;51.910;8.352;2023-07-30T14:31:33;12.07;;;2.67;;
21128;SDS011;10722;51.910;8.352;2023-07-30T14:34:22;12.18;;;2.22;;
21128;SDS011;10722;51.910;8.352;2023-07-30T14:37:08;12.95;;;2.55;;
21128;SDS011;10722;51.910;8.352;2023-07-30T14:39:54;11.05;;;2.42;;
21128;SDS011;10722;51.910;8.352;2023-07-30T14:42:40;12.73;;;2.58;;
21128;SDS011;10722;51.910;8.352;2023-07-30T14:45:25;14.70;;;2.60;;
21128;SDS011;10722;51.910;8.352;2023-07-30T14:48:10;11.70;;;2.17;;
21128;SDS011;10722;51.910;8.352;2023-07-30T14:50:56;12.20;;;2.25;;
21128;SDS011;10722;51.910;8.352;2023-07-30T14:53:41;6.75;;;1.90;;
21128;SDS011;10722;51.910;8.352;2023-07-30T14:56:27;11.57;;;2.45;;
21128;SDS011;10722;51.910;8.352;2023-07-30T14:59:13;11.98;;;2.17;;
21128;SDS011;10722;51.910;8.352;2023-07-30T15:01:59;12.52;;;2.50;;
21128;SDS011;10722;51.910;8.352;2023-07-30T15:04:44;11.82;;;2.13;;
21128;SDS011;10722;51.910;8.352;2023-07-30T15:07:34;12.63;;;2.35;;
21128;SDS011;10722;51.910;8.352;2023-07-30T15:10:20;8.85;;;2.15;;
21128;SDS011;10722;51.910;8.352;2023-07-30T15:13:09;12.27;;;2.33;;
21128;SDS011;10722;51.910;8.352;2023-07-30T15:15:59;11.90;;;2.13;;
21128;SDS011;10722;51.910;8.352;2023-07-30T15:18:44;13.27;;;2.58;;
21128;SDS011;10722;51.910;8.352;2023-07-30T15:21:30;11.15;;;1.92;;
21128;SDS011;10722;51.910;8.352;2023-07-30T15:24:16;10.52;;;1.95;;
21128;SDS011;10722;51.910;8.352;2023-07-30T15:27:03;7.22;;;1.98;;
21128;SDS011;10722;51.910;8.352;2023-07-30T15:29:49;10.13;;;2.00;;
21128;SDS011;10722;51.910;8.352;2023-07-30T15:32:42;11.90;;;1.77;;
21128;SDS011;10722;51.910;8.352;2023-07-30T15:35:29;10.00;;;2.00;;
21128;SDS011;10722;51.910;8.352;2023-07-30T15:38:16;10.50;;;2.00;;
21128;SDS011;10722;51.910;8.352;2023-07-30T15:41:01;9.80;;;2.13;;
21128;SDS011;10722;51.910;8.352;2023-07-30T15:43:47;11.02;;;2.05;;
21128;SDS011;10722;51.910;8.352;2023-07-30T15:46:32;13.82;;;2.10;;
21128;SDS011;10722;51.910;8.352;2023-07-30T15:49:18;8.60;;;1.80;;
21128;SDS011;10722;51.910;8.352;2023-07-30T15:52:04;8.45;;;1.80;;
21128;SDS011;10722;51.910;8.352;2023-07-30T15:54:49;9.55;;;2.05;;
21128;SDS011;10722;51.910;8.352;2023-07-30T15:57:35;12.35;;;2.00;;
21128;SDS011;10722;51.910;8.352;2023-07-30T16:00:21;10.57;;;2.00;;
21128;SDS011;10722;51.910;8.352;2023-07-30T16:03:06;7.45;;;1.85;;
21128;SDS011;10722;51.910;8.352;2023-07-30T16:05:52;12.20;;;1.90;;
21128;SDS011;10722;51.910;8.352;2023-07-30T16:08:39;7.40;;;1.50;;
21128;SDS011;10722;51.910;8.352;2023-07-30T16:11:24;8.75;;;1.88;;
21128;SDS011;10722;51.910;8.352;2023-07-30T16:14:09;8.27;;;1.85;;
21128;SDS011;10722;51.910;8.352;2023-07-30T16:16:54;8.43;;;1.50;;
21128;SDS011;10722;51.910;8.352;2023-07-30T16:19:40;8.98;;;1.60;;